Airfield :
LOGIN :

Register | Disclaimer

   EN    FR    IT 

 










Legend :    VFR   Marginal VFR   IFR   Intensive IFR   Very Intensive IFR
Visi :
Ceiling :
>= 8 km
>= 3000ft
5 to 8 km
1000 to 3000 ft
1500m to 5 km
500 to 1000 ft
800 to 1500m
200 to 500 ft
< 800m
< 200 ft
Symbols :   Thunderstorms  Fog  Heavy snow  Heavy precipitations  Wind > 20 kt
SIGMETs :     Misc.  Thunderstorms  Icing  Turbulence  Mountain Waves  Volcanic Ashes






- Airport Elevation : 1822 ft


ETSL - Lechfeld AB

CURRENT METAR :
  • 150720Z 06012KT 9999 FEW010 BKN180 BKN240 03/M01 Q0994 BLU

EXPIRED METARs :
  • 150620Z 08009KT 9999 BKN200 02/M01 Q0993 BLU+
  • 150520Z 06012KT 9999 BKN200 02/M01 Q0993 BLU+
  • 150420Z 05007KT 9999 BKN200 00/M01 Q0994 BLU+

TAF TAF ETSL
Valid from the 15 at 06:00 until the 15 at 15:00 UTC


150520Z 1506/1515 05008KT 9999 NSW BKN200
BECMG 1508/1510 24008KT 9999 NSW FEW025 BKN050
TEMPO 1512/1515 23007KT 5000 -RA FEW015 BKN020 BY ETGL



MET'MAP, your aeronautical weather chart ! - Copyright ORBIFLY December 2007 - Disclaimer

ORBIFLY MET'MAP TEAM :

Programming & Development : Alexandra Zaïnal
Concept & Development : Baudouin d'Aumeries
Co-Development & Prog : Marc-Olivier Méhu
Technical & hardware support : Manuel Goepfert

Contact : metmap@orbifly.com




SOURCES & CREDITS :

   NOAA